Time;durP1;ratioP1;P1;durP2;ratioP2;P2;SDS_P1;SDS_P2;PMS_P1;PMS_P2;Temp;Humidity;BMP_temperature;BMP_pressure;BME280_temperature;BME280_humidity;BME280_pressure;Samples;Min_cycle;Max_cycle;Signal;HPM_P1;HPM_P2
2023/07/21 00:34:04;;;;;;;31.25;18.35;;;;;;;;;;6294572;27;20940;-80
2023/07/21 00:37:05;;;;;;;27.65;18.88;;;;;;;;;;6287946;28;20052;-81
2023/07/21 00:40:09;;;;;;;21.98;15.82;;;;;;;;;;6267997;28;20460;-79
2023/07/21 00:43:10;;;;;;;19.33;13.40;;;;;;;;;;6292339;28;20013;-80
2023/07/21 00:46:10;;;;;;;17.58;13.82;;;;;;;;;;6274899;28;20013;-82
2023/07/21 00:49:10;;;;;;;17.93;11.90;;;;;;;;;;6282889;28;20017;-81
2023/07/21 00:52:17;;;;;;;14.35;10.55;;;;;;;;;;6268422;28;20330;-80
2023/07/21 00:55:18;;;;;;;17.60;11.23;;;;;;;;;;6278313;28;20013;-81
2023/07/21 00:58:18;;;;;;;14.70;10.73;;;;;;;;;;6280903;28;20071;-80
2023/07/21 01:01:18;;;;;;;16.83;10.47;;;;;;;;;;6287107;28;20024;-79
2023/07/21 01:10:33;;;;;;;15.70;8.82;;;;;;;;;;6251727;28;20049;-81
2023/07/21 01:13:34;;;;;;;14.10;10.52;;;;;;;;;;6252243;28;20381;-81
2023/07/21 01:16:37;;;;;;;14.97;9.30;;;;;;;;;;6233631;28;20080;-81
2023/07/21 01:19:37;;;;;;;13.00;9.23;;;;;;;;;;6227271;28;20369;-81
2023/07/21 01:22:52;;;;;;;16.37;10.70;;;;;;;;;;6238828;28;20398;-81
2023/07/21 01:25:53;;;;;;;12.52;8.88;;;;;;;;;;6256453;28;20150;-81
2023/07/21 01:28:54;;;;;;;13.68;10.57;;;;;;;;;;6228044;28;20021;-81
2023/07/21 01:31:55;;;;;;;13.83;9.97;;;;;;;;;;6235484;28;20025;-81
2023/07/21 01:34:56;;;;;;;16.80;11.77;;;;;;;;;;6244810;28;20055;-81
2023/07/21 01:37:57;;;;;;;13.63;10.43;;;;;;;;;;6248402;28;20468;-81
2023/07/21 01:40:58;;;;;;;15.20;10.90;;;;;;;;;;6228628;28;20018;-81
2023/07/21 01:43:58;;;;;;;15.38;9.77;;;;;;;;;;6228602;28;20111;-81
2023/07/21 01:46:59;;;;;;;13.13;9.33;;;;;;;;;;6217493;28;20020;-80
2023/07/21 01:50:00;;;;;;;14.57;10.53;;;;;;;;;;6241429;28;20021;-81
2023/07/21 01:53:02;;;;;;;13.52;9.60;;;;;;;;;;6230059;28;20109;-81
2023/07/21 01:56:05;;;;;;;16.52;11.18;;;;;;;;;;6231923;28;20108;-80
2023/07/21 01:59:06;;;;;;;16.88;11.00;;;;;;;;;;6230133;28;20025;-81
2023/07/21 02:02:07;;;;;;;15.90;11.35;;;;;;;;;;6240193;28;20032;-81
2023/07/21 02:05:20;;;;;;;18.87;11.30;;;;;;;;;;6218545;28;20026;-80
2023/07/21 02:08:21;;;;;;;13.32;10.32;;;;;;;;;;6227074;28;20590;-81
2023/07/21 02:11:21;;;;;;;15.27;12.00;;;;;;;;;;6234533;28;20163;-81
2023/07/21 02:14:22;;;;;;;14.53;9.53;;;;;;;;;;6238838;28;20034;-81
2023/07/21 02:17:23;;;;;;;13.87;10.77;;;;;;;;;;6236625;28;20032;-82
2023/07/21 02:20:23;;;;;;;14.00;9.73;;;;;;;;;;6235812;28;20105;-81
2023/07/21 02:23:23;;;;;;;16.83;11.57;;;;;;;;;;6239657;28;20022;-80
2023/07/21 02:26:24;;;;;;;14.07;10.13;;;;;;;;;;6231334;28;20530;-81
2023/07/21 02:29:24;;;;;;;14.73;11.03;;;;;;;;;;6212558;28;20075;-80
2023/07/21 02:32:25;;;;;;;15.17;10.70;;;;;;;;;;6242437;28;20028;-81
2023/07/21 02:35:25;;;;;;;14.90;10.53;;;;;;;;;;6232514;28;20037;-80
2023/07/21 02:38:26;;;;;;;17.13;11.63;;;;;;;;;;6209641;28;20554;-80
2023/07/21 02:41:26;;;;;;;15.63;10.87;;;;;;;;;;6244982;28;20030;-81
2023/07/21 02:44:27;;;;;;;15.13;11.00;;;;;;;;;;6215297;28;20108;-81
2023/07/21 02:47:28;;;;;;;15.87;11.90;;;;;;;;;;6239225;28;20566;-80
2023/07/21 02:50:29;;;;;;;18.00;11.37;;;;;;;;;;6238487;28;20292;-79
2023/07/21 02:53:29;;;;;;;19.75;11.55;;;;;;;;;;6226578;28;20029;-80
2023/07/21 02:56:29;;;;;;;14.40;9.43;;;;;;;;;;6224852;28;20061;-81
2023/07/21 02:59:29;;;;;;;18.97;10.47;;;;;;;;;;6234286;28;20021;-80
2023/07/21 03:02:33;;;;;;;15.17;10.03;;;;;;;;;;6237643;28;20022;-80
2023/07/21 03:05:34;;;;;;;16.15;10.70;;;;;;;;;;6220831;28;20104;-80
2023/07/21 03:08:34;;;;;;;12.43;8.97;;;;;;;;;;6223143;28;20488;-81
2023/07/21 03:11:35;;;;;;;16.83;10.57;;;;;;;;;;6225043;28;20026;-80
2023/07/21 03:14:35;;;;;;;14.03;10.83;;;;;;;;;;6232277;28;20072;-81
2023/07/21 03:17:35;;;;;;;15.63;9.53;;;;;;;;;;6238518;28;20532;-80
2023/07/21 03:20:35;;;;;;;17.90;10.95;;;;;;;;;;6234928;28;20017;-81
2023/07/21 03:23:36;;;;;;;16.53;12.40;;;;;;;;;;6214380;28;20048;-80
2023/07/21 03:26:36;;;;;;;16.93;12.27;;;;;;;;;;6237862;28;20096;-81
2023/07/21 03:29:36;;;;;;;16.43;11.30;;;;;;;;;;6238757;28;20021;-80
2023/07/21 03:32:36;;;;;;;18.77;12.40;;;;;;;;;;6230970;28;20036;-80
2023/07/21 03:35:37;;;;;;;15.60;11.03;;;;;;;;;;6235563;28;20439;-81
2023/07/21 03:38:37;;;;;;;15.70;11.55;;;;;;;;;;6213999;28;20029;-81
2023/07/21 03:41:37;;;;;;;20.93;11.77;;;;;;;;;;6215540;28;20388;-81
2023/07/21 03:44:38;;;;;;;16.03;12.43;;;;;;;;;;6216812;28;20022;-81
2023/07/21 03:47:38;;;;;;;16.43;11.73;;;;;;;;;;6218063;28;20017;-80
2023/07/21 03:50:38;;;;;;;13.43;10.67;;;;;;;;;;6237313;28;20480;-80
2023/07/21 03:53:38;;;;;;;13.68;11.48;;;;;;;;;;6230479;28;20018;-80
2023/07/21 03:56:39;;;;;;;23.53;12.47;;;;;;;;;;6227087;28;20018;-80
2023/07/21 03:59:41;;;;;;;18.03;10.70;;;;;;;;;;6233738;28;20020;-80
2023/07/21 04:02:41;;;;;;;19.50;11.20;;;;;;;;;;6233736;28;20468;-81
2023/07/21 04:05:41;;;;;;;17.87;11.40;;;;;;;;;;6205282;28;20026;-81
2023/07/21 04:08:42;;;;;;;13.32;10.52;;;;;;;;;;6209513;28;20060;-80
2023/07/21 04:11:42;;;;;;;18.10;11.53;;;;;;;;;;6210688;28;20571;-80
2023/07/21 04:14:43;;;;;;;16.87;10.67;;;;;;;;;;6211910;28;20041;-80
2023/07/21 04:17:43;;;;;;;15.00;10.43;;;;;;;;;;6212280;28;20022;-81
2023/07/21 04:20:43;;;;;;;14.97;9.90;;;;;;;;;;6204611;28;20033;-80
2023/07/21 04:23:44;;;;;;;15.17;10.07;;;;;;;;;;6202055;28;20453;-80
2023/07/21 04:26:44;;;;;;;14.00;9.27;;;;;;;;;;6207985;28;20018;-81
2023/07/21 04:29:44;;;;;;;14.07;9.50;;;;;;;;;;6201371;28;20019;-81
2023/07/21 04:32:44;;;;;;;15.90;9.83;;;;;;;;;;6204251;28;20022;-81
2023/07/21 04:35:48;;;;;;;11.73;8.33;;;;;;;;;;6211806;28;20053;-81
2023/07/21 04:38:48;;;;;;;14.35;9.43;;;;;;;;;;6205465;28;20097;-81
2023/07/21 04:41:48;;;;;;;13.83;9.20;;;;;;;;;;6193514;28;20079;-81
2023/07/21 04:44:49;;;;;;;14.73;8.50;;;;;;;;;;6203612;28;20023;-80
2023/07/21 04:47:49;;;;;;;15.37;9.03;;;;;;;;;;6203767;28;20105;-80
2023/07/21 04:50:52;;;;;;;11.23;8.20;;;;;;;;;;6213643;28;20149;-81
2023/07/21 04:53:53;;;;;;;15.57;8.60;;;;;;;;;;6204594;28;20573;-80
2023/07/21 04:56:53;;;;;;;13.57;9.10;;;;;;;;;;6199676;28;20085;-80
2023/07/21 04:59:53;;;;;;;13.67;8.47;;;;;;;;;;6210021;28;20751;-81
2023/07/21 05:02:54;;;;;;;15.40;7.97;;;;;;;;;;6206688;28;20053;-81
2023/07/21 05:05:55;;;;;;;15.13;8.45;;;;;;;;;;6211145;28;20488;-81
2023/07/21 05:08:55;;;;;;;15.23;8.53;;;;;;;;;;6217263;28;20061;-81
2023/07/21 05:11:55;;;;;;;18.52;8.15;;;;;;;;;;6214769;28;20029;-81
2023/07/21 05:14:57;;;;;;;13.33;7.73;;;;;;;;;;6225712;28;20389;-81
2023/07/21 05:17:57;;;;;;;13.13;7.35;;;;;;;;;;6212740;28;20091;-80
2023/07/21 05:20:57;;;;;;;14.37;8.50;;;;;;;;;;6236648;28;20018;-81
2023/07/21 05:23:58;;;;;;;14.17;7.63;;;;;;;;;;6219760;28;20079;-81
2023/07/21 05:26:58;;;;;;;16.03;9.83;;;;;;;;;;6241212;28;20029;-81
2023/07/21 05:30:01;;;;;;;15.90;8.63;;;;;;;;;;6250152;28;20468;-81
2023/07/21 05:33:01;;;;;;;14.63;9.38;;;;;;;;;;6248395;28;20087;-81
2023/07/21 05:36:10;;;;;;;14.93;9.23;;;;;;;;;;6238586;28;20420;-81
2023/07/21 05:39:10;;;;;;;13.60;7.63;;;;;;;;;;6221636;28;20033;-81
2023/07/21 05:42:10;;;;;;;13.40;8.17;;;;;;;;;;6222542;28;20493;-81
2023/07/21 05:45:11;;;;;;;9.97;7.00;;;;;;;;;;6225792;28;20057;-81
2023/07/21 05:48:12;;;;;;;12.43;7.70;;;;;;;;;;6240347;28;20455;-81
2023/07/21 05:51:12;;;;;;;11.40;7.33;;;;;;;;;;6215521;28;20033;-83
2023/07/21 05:54:14;;;;;;;12.37;8.30;;;;;;;;;;6166220;28;20018;-81
2023/07/21 05:57:14;;;;;;;11.77;7.80;;;;;;;;;;6234015;28;20033;-81
2023/07/21 06:00:15;;;;;;;13.27;6.53;;;;;;;;;;6228855;28;20033;-81
2023/07/21 06:03:15;;;;;;;12.60;8.50;;;;;;;;;;6224969;28;20018;-80
2023/07/21 06:06:15;;;;;;;11.27;8.25;;;;;;;;;;6229959;28;20040;-81
2023/07/21 06:09:16;;;;;;;18.67;8.73;;;;;;;;;;6229656;28;20116;-80
2023/07/21 06:12:17;;;;;;;13.63;7.50;;;;;;;;;;6228283;28;20030;-81
2023/07/21 06:15:18;;;;;;;16.45;7.50;;;;;;;;;;6242979;28;20460;-81
2023/07/21 06:18:18;;;;;;;13.95;8.13;;;;;;;;;;6245080;28;20021;-81
2023/07/21 06:21:19;;;;;;;14.63;8.33;;;;;;;;;;6237636;28;20362;-81
2023/07/21 06:24:20;;;;;;;17.13;8.93;;;;;;;;;;6232586;28;20038;-82
2023/07/21 06:27:20;;;;;;;13.70;7.43;;;;;;;;;;6229382;28;20595;-82
2023/07/21 06:30:20;;;;;;;13.53;8.00;;;;;;;;;;6242123;28;20495;-82
2023/07/21 06:33:20;;;;;;;16.17;8.30;;;;;;;;;;6222889;28;20030;-82
2023/07/21 06:36:20;;;;;;;19.93;9.00;;;;;;;;;;6238054;28;20096;-83
2023/07/21 06:39:22;;;;;;;18.53;9.10;;;;;;;;;;6215039;28;20030;-82
2023/07/21 06:42:23;;;;;;;16.33;9.27;;;;;;;;;;6239118;28;20368;-82
2023/07/21 06:45:24;;;;;;;14.60;9.10;;;;;;;;;;6213083;28;20022;-83
2023/07/21 06:48:25;;;;;;;16.50;9.65;;;;;;;;;;6229521;28;20373;-82
2023/07/21 06:51:25;;;;;;;16.33;9.53;;;;;;;;;;6225624;28;20034;-81
2023/07/21 06:54:29;;;;;;;17.43;9.07;;;;;;;;;;6237444;28;20025;-82
2023/07/21 06:57:30;;;;;;;14.98;9.25;;;;;;;;;;6225355;28;20049;-82
2023/07/21 07:00:30;;;;;;;16.90;8.97;;;;;;;;;;6222709;28;20028;-81
2023/07/21 07:03:30;;;;;;;13.67;8.53;;;;;;;;;;6220962;28;20018;-82
2023/07/21 07:06:30;;;;;;;13.30;8.60;;;;;;;;;;6234701;28;20033;-82
2023/07/21 07:09:31;;;;;;;18.80;8.80;;;;;;;;;;6242960;28;20057;-82
2023/07/21 07:12:32;;;;;;;17.83;8.10;;;;;;;;;;6215185;28;20040;-81
2023/07/21 07:15:32;;;;;;;14.32;7.95;;;;;;;;;;6226216;28;20025;-82
2023/07/21 07:18:32;;;;;;;13.50;8.67;;;;;;;;;;6231141;28;20100;-82
2023/07/21 07:21:33;;;;;;;15.07;8.30;;;;;;;;;;6216263;28;20026;-82
2023/07/21 07:24:33;;;;;;;13.07;8.50;;;;;;;;;;6236833;28;20383;-82
2023/07/21 07:27:34;;;;;;;15.20;8.67;;;;;;;;;;6211893;28;20029;-82
2023/07/21 07:30:34;;;;;;;12.13;7.83;;;;;;;;;;6221321;28;20105;-82
2023/07/21 07:33:34;;;;;;;14.20;7.57;;;;;;;;;;6241004;28;20132;-82
2023/07/21 07:36:34;;;;;;;11.53;7.73;;;;;;;;;;6214846;28;20018;-82
2023/07/21 07:39:35;;;;;;;12.40;6.88;;;;;;;;;;6217156;28;20009;-83
2023/07/21 07:42:35;;;;;;;14.57;7.67;;;;;;;;;;6236845;28;20468;-82
2023/07/21 07:45:36;;;;;;;16.20;8.97;;;;;;;;;;6231870;28;20013;-81
2023/07/21 07:48:37;;;;;;;15.53;8.80;;;;;;;;;;6228831;28;20048;-81
2023/07/21 07:51:38;;;;;;;13.80;7.90;;;;;;;;;;6229023;28;20315;-82
2023/07/21 07:54:38;;;;;;;15.02;7.28;;;;;;;;;;6203921;28;20018;-82
2023/07/21 07:57:39;;;;;;;15.47;8.60;;;;;;;;;;6209702;28;20387;-82
2023/07/21 08:00:41;;;;;;;15.87;7.73;;;;;;;;;;6223114;28;20071;-81
2023/07/21 08:03:43;;;;;;;19.48;8.38;;;;;;;;;;6233620;28;20540;-82
2023/07/21 08:06:44;;;;;;;15.23;9.43;;;;;;;;;;6224380;28;20030;-81
2023/07/21 08:09:44;;;;;;;14.57;8.30;;;;;;;;;;6235833;28;20057;-81
2023/07/21 08:12:44;;;;;;;18.10;9.20;;;;;;;;;;6231596;28;20036;-81
2023/07/21 08:15:45;;;;;;;14.97;8.40;;;;;;;;;;6220908;28;20029;-81
2023/07/21 08:18:45;;;;;;;12.40;7.07;;;;;;;;;;6217487;28;20042;-82
2023/07/21 08:21:48;;;;;;;16.52;8.15;;;;;;;;;;6217714;28;20033;-81
2023/07/21 08:24:48;;;;;;;15.77;7.18;;;;;;;;;;6204956;28;20057;-81
2023/07/21 08:27:49;;;;;;;14.53;7.47;;;;;;;;;;6226756;28;20032;-81
2023/07/21 08:30:49;;;;;;;13.52;6.93;;;;;;;;;;6221859;28;20485;-82
2023/07/21 08:33:50;;;;;;;14.13;7.67;;;;;;;;;;6219664;28;20022;-82
2023/07/21 08:36:50;;;;;;;14.43;8.52;;;;;;;;;;6215016;28;20021;-82
2023/07/21 08:39:51;;;;;;;14.00;7.63;;;;;;;;;;6224317;28;20084;-83
2023/07/21 08:42:51;;;;;;;11.53;6.23;;;;;;;;;;6208925;28;20411;-82
2023/07/21 08:45:52;;;;;;;16.70;8.07;;;;;;;;;;6232246;28;20476;-82
2023/07/21 08:48:53;;;;;;;;;;;;;;;;;;6233092;28;20033;-82
2023/07/21 08:51:53;;;;;;;15.25;6.78;;;;;;;;;;6231794;28;19913;-82
2023/07/21 08:54:54;;;;;;;18.07;8.27;;;;;;;;;;6234432;28;20384;-82
2023/07/21 08:58:00;;;;;;;16.70;7.20;;;;;;;;;;6217179;28;20543;-82
2023/07/21 09:01:04;;;;;;;14.20;6.35;;;;;;;;;;6234868;28;20029;-81
2023/07/21 09:04:16;;;;;;;16.13;7.55;;;;;;;;;;6222876;28;20373;-84
2023/07/21 09:07:16;;;;;;;12.90;7.38;;;;;;;;;;6238233;28;20028;-81
2023/07/21 09:10:28;;;;;;;14.10;6.30;;;;;;;;;;6244087;28;20061;-81
2023/07/21 09:13:29;;;;;;;11.02;7.03;;;;;;;;;;6243455;28;20471;-80
2023/07/21 09:16:32;;;;;;;20.17;7.78;;;;;;;;;;6233124;28;20016;-81
2023/07/21 09:19:36;;;;;;;11.77;6.38;;;;;;;;;;6237731;28;20430;-81
2023/07/21 09:22:38;;;;;;;17.92;7.30;;;;;;;;;;6242014;28;20075;-84
2023/07/21 09:25:47;;;;;;;11.10;5.22;;;;;;;;;;6247261;28;20025;-84
2023/07/21 09:28:47;;;;;;;12.45;6.53;;;;;;;;;;6241427;28;20018;-84
2023/07/21 09:31:48;;;;;;;15.00;6.87;;;;;;;;;;6235911;28;20025;-84
2023/07/21 09:34:53;;;;;;;20.77;7.45;;;;;;;;;;6234620;28;20036;-84
2023/07/21 09:37:55;;;;;;;17.15;7.20;;;;;;;;;;6232000;28;20025;-84
2023/07/21 09:40:59;;;;;;;17.05;8.70;;;;;;;;;;6239806;28;20017;-84
2023/07/21 09:44:00;;;;;;;18.15;8.80;;;;;;;;;;6241494;28;20399;-85
2023/07/21 09:47:00;;;;;;;;;;;;;;;;;;6240666;28;20024;-84
2023/07/21 09:50:00;;;;;;;25.08;8.93;;;;;;;;;;6238636;28;19913;-84
2023/07/21 09:53:03;;;;;;;18.10;7.97;;;;;;;;;;6241968;28;20488;-84
2023/07/21 09:56:04;;;;;;;17.35;7.68;;;;;;;;;;6235894;28;20766;-84
2023/07/21 09:59:06;;;;;;;21.75;7.18;;;;;;;;;;6240194;28;20030;-84
2023/07/21 10:02:07;;;;;;;11.73;6.63;;;;;;;;;;6242437;28;20025;-84
2023/07/21 10:05:09;;;;;;;13.75;6.00;;;;;;;;;;6218731;28;20105;-84
2023/07/21 10:08:09;;;;;;;12.48;5.97;;;;;;;;;;6243721;28;20037;-83
2023/07/21 10:11:09;;;;;;;11.33;5.03;;;;;;;;;;6219840;28;20104;-84
2023/07/21 10:14:29;;;;;;;11.80;5.33;;;;;;;;;;6244917;28;20025;-83
2023/07/21 10:17:41;;;;;;;13.68;5.78;;;;;;;;;;6221512;28;20030;-83
2023/07/21 10:20:51;;;;;;;17.83;5.53;;;;;;;;;;6238500;28;20036;-84
2023/07/21 10:23:54;;;;;;;12.17;4.93;;;;;;;;;;6233734;28;20033;-84
2023/07/21 10:26:56;;;;;;;8.88;4.85;;;;;;;;;;6236863;28;20017;-84
2023/07/21 10:30:25;;;;;;;8.65;4.10;;;;;;;;;;6242347;28;20362;-84
2023/07/21 10:33:28;;;;;;;5.75;2.80;;;;;;;;;;6221879;28;20049;-82
2023/07/21 10:36:48;;;;;;;5.97;3.45;;;;;;;;;;6221550;28;20472;-82
2023/07/21 10:39:52;;;;;;;6.25;3.33;;;;;;;;;;6230959;28;20025;-81
2023/07/21 10:42:53;;;;;;;3.85;2.42;;;;;;;;;;6218401;28;21363;-82
2023/07/21 10:45:54;;;;;;;;;;;;;;;;;;6238910;28;20056;-82
2023/07/21 10:48:54;;;;;;;4.05;1.90;;;;;;;;;;6239587;28;19991;-82
2023/07/21 10:51:54;;;;;;;;;;;;;;;;;;6217329;28;20014;-81
2023/07/21 10:54:56;;;;;;;3.35;1.52;;;;;;;;;;6237414;28;19954;-82
2023/07/21 10:57:56;;;;;;;2.13;1.45;;;;;;;;;;6231394;28;20029;-82
2023/07/21 11:00:56;;;;;;;;;;;;;;;;;;6222494;28;20025;-81
2023/07/21 11:03:59;;;;;;;3.45;1.50;;;;;;;;;;6235567;28;19917;-82
2023/07/21 11:06:59;;;;;;;2.85;1.50;;;;;;;;;;6216688;28;20014;-82
2023/07/21 11:10:00;;;;;;;3.47;1.70;;;;;;;;;;6221779;28;20045;-82
2023/07/21 11:13:03;;;;;;;2.60;1.70;;;;;;;;;;6223613;28;20076;-82
2023/07/21 11:16:03;;;;;;;2.78;1.95;;;;;;;;;;6236030;28;20815;-82
2023/07/21 11:19:04;;;;;;;2.23;1.40;;;;;;;;;;6242826;28;20107;-82
2023/07/21 11:22:05;;;;;;;2.47;2.03;;;;;;;;;;6223475;28;20394;-83
2023/07/21 11:25:07;;;;;;;4.93;2.03;;;;;;;;;;6241557;28;20024;-82
2023/07/21 11:28:11;;;;;;;5.75;2.33;;;;;;;;;;6237049;28;20020;-83
2023/07/21 11:31:15;;;;;;;2.97;1.98;;;;;;;;;;6237488;28;20136;-81
2023/07/21 11:34:18;;;;;;;3.55;2.08;;;;;;;;;;6238082;28;20021;-83
2023/07/21 11:37:19;;;;;;;3.20;1.75;;;;;;;;;;6222161;28;20029;-82
2023/07/21 11:40:25;;;;;;;3.75;2.00;;;;;;;;;;6228273;28;20030;-83
2023/07/21 11:43:25;;;;;;;7.50;2.65;;;;;;;;;;6231070;28;20421;-83
2023/07/21 11:46:25;;;;;;;;;;;;;;;;;;6224494;28;20022;-82
2023/07/21 11:49:28;;;;;;;7.37;2.47;;;;;;;;;;6236543;28;20003;-82
2023/07/21 11:52:28;;;;;;;6.47;2.78;;;;;;;;;;6211740;28;20446;-83
2023/07/21 11:55:28;;;;;;;;;;;;;;;;;;6228248;28;20025;-82
2023/07/21 11:58:28;;;;;;;8.80;3.20;;;;;;;;;;6236519;28;19909;-83
2023/07/21 12:01:29;;;;;;;;;;;;;;;;;;6229508;28;20730;-84
2023/07/21 12:04:29;;;;;;;7.17;3.10;;;;;;;;;;6219277;28;19909;-83
2023/07/21 12:07:29;;;;;;;;;;;;;;;;;;6229963;28;20033;-84
2023/07/21 12:10:31;;;;;;;9.20;3.63;;;;;;;;;;6233002;28;19917;-87
2023/07/21 12:13:32;;;;;;;7.28;4.13;;;;;;;;;;6211916;28;20026;-88
2023/07/21 12:16:32;;;;;;;;;;;;;;;;;;6207860;28;20056;-83
2023/07/21 12:19:34;;;;;;;7.97;3.67;;;;;;;;;;6233148;28;20492;-87
2023/07/21 12:22:34;;;;;;;6.80;3.58;;;;;;;;;;6215134;28;20033;-87
2023/07/21 12:25:35;;;;;;;7.53;3.67;;;;;;;;;;6216679;28;20025;-87
2023/07/21 12:28:35;;;;;;;10.17;3.83;;;;;;;;;;6234442;28;20064;-85
2023/07/21 12:31:35;;;;;;;8.27;3.80;;;;;;;;;;6219451;28;20302;-86
2023/07/21 12:34:36;;;;;;;12.95;4.53;;;;;;;;;;6227873;28;20480;-86
2023/07/21 12:37:39;;;;;;;9.60;3.33;;;;;;;;;;6244165;28;20013;-86
2023/07/21 12:40:41;;;;;;;6.20;3.22;;;;;;;;;;6243763;28;20155;-85
2023/07/21 12:43:41;;;;;;;9.80;3.10;;;;;;;;;;6244202;28;20139;-85
2023/07/21 12:46:41;;;;;;;8.67;2.80;;;;;;;;;;6225888;28;20487;-88
2023/07/21 12:49:41;;;;;;;8.23;5.30;;;;;;;;;;6240671;28;20060;-91
2023/07/21 12:52:41;;;;;;;;;;;;;;;;;;6247508;28;20282;-88
2023/07/21 12:55:42;;;;;;;8.65;2.72;;;;;;;;;;6225058;28;19975;-88
2023/07/21 12:58:42;;;;;;;;;;;;;;;;;;6232365;28;20485;-88
2023/07/21 13:01:43;;;;;;;4.03;2.30;;;;;;;;;;6240741;28;19920;-87
2023/07/21 13:04:43;;;;;;;;;;;;;;;;;;6244307;28;20026;-88
2023/07/21 13:07:44;;;;;;;3.73;2.80;;;;;;;;;;6241286;28;20616;-90
2023/07/21 13:10:44;;;;;;;;;;;;;;;;;;6231678;28;20538;-85
2023/07/21 13:13:46;;;;;;;5.13;2.85;;;;;;;;;;6236267;28;19937;-85
2023/07/21 13:16:46;;;;;;;6.30;2.35;;;;;;;;;;6238924;28;20064;-86
2023/07/21 13:19:47;;;;;;;3.30;2.10;;;;;;;;;;6252311;28;20473;-86
2023/07/21 13:22:47;;;;;;;4.65;2.20;;;;;;;;;;6233626;28;20468;-86
2023/07/21 13:25:47;;;;;;;;;;;;;;;;;;6228101;28;20026;-86
2023/07/21 13:28:48;;;;;;;4.30;2.20;;;;;;;;;;6224831;28;20455;-86
2023/07/21 13:31:48;;;;;;;;;;;;;;;;;;6238719;28;20014;-88
2023/07/21 13:34:48;;;;;;;6.05;2.40;;;;;;;;;;6259022;28;19921;-89
2023/07/21 13:37:49;;;;;;;;;;;;;;;;;;6264495;28;20044;-88
2023/07/21 13:40:49;;;;;;;5.20;2.22;;;;;;;;;;6255352;28;19920;-88
2023/07/21 13:43:49;;;;;;;;;;;;;;;;;;6266915;28;20096;-88
2023/07/21 13:46:50;;;;;;;3.22;1.98;;;;;;;;;;6267182;28;19920;-89
2023/07/21 13:49:50;;;;;;;;;;;;;;;;;;6260051;28;20200;-88
2023/07/21 13:52:50;;;;;;;4.88;2.33;;;;;;;;;;6240318;28;19920;-88
2023/07/21 13:55:50;;;;;;;;;;;;;;;;;;6260345;28;20028;-87
2023/07/21 13:58:50;;;;;;;2.20;1.92;;;;;;;;;;6250696;28;19910;-88
2023/07/21 14:01:51;;;;;;;;;;;;;;;;;;6264828;28;20140;-89
2023/07/21 14:04:51;;;;;;;4.53;2.20;;;;;;;;;;6249558;28;19976;-88
2023/07/21 14:07:51;;;;;;;6.35;2.22;;;;;;;;;;6256111;28;20276;-85
2023/07/21 14:10:52;;;;;;;;;;;;;;;;;;6236069;28;20041;-85
2023/07/21 14:13:52;;;;;;;3.35;1.95;;;;;;;;;;6258667;28;20084;-84
2023/07/21 14:16:52;;;;;;;;;;;;;;;;;;6262520;28;20033;-84
2023/07/21 14:19:52;;;;;;;4.82;2.47;;;;;;;;;;6246196;28;19897;-84
2023/07/21 14:22:53;;;;;;;;;;;;;;;;;;6260940;28;20040;-85
2023/07/21 14:25:53;;;;;;;4.32;2.50;;;;;;;;;;6252792;28;19917;-86
2023/07/21 14:28:53;;;;;;;4.95;2.72;;;;;;;;;;6242615;28;20250;-85
2023/07/21 14:31:54;;;;;;;;;;;;;;;;;;6237288;28;20033;-85
2023/07/21 14:34:54;;;;;;;3.15;2.30;;;;;;;;;;6240651;28;19959;-85
2023/07/21 14:37:54;;;;;;;3.88;2.92;;;;;;;;;;6223158;28;20487;-85
2023/07/21 14:40:54;;;;;;;;;;;;;;;;;;6228953;28;20018;-85
2023/07/21 14:43:55;;;;;;;6.38;2.85;;;;;;;;;;6230110;28;20371;-85
2023/07/21 14:46:55;;;;;;;;;;;;;;;;;;6218757;28;20587;-89
2023/07/21 14:49:55;;;;;;;5.80;2.97;;;;;;;;;;6232648;28;19956;-85
2023/07/21 14:52:55;;;;;;;;;;;;;;;;;;6237556;28;20431;-88
2023/07/21 14:55:55;;;;;;;6.85;2.83;;;;;;;;;;6224637;28;19916;-87
2023/07/21 14:58:55;;;;;;;;;;;;;;;;;;6238868;28;20025;-89
2023/07/21 15:01:57;;;;;;;6.20;2.40;;;;;;;;;;6237368;28;19913;-86
2023/07/21 15:04:59;;;;;;;5.18;2.85;;;;;;;;;;6235958;28;20117;-86
2023/07/21 15:07:59;;;;;;;5.28;2.70;;;;;;;;;;6237004;28;20017;-85
2023/07/21 15:11:00;;;;;;;;;;;;;;;;;;6238567;28;20415;-85
2023/07/21 15:14:01;;;;;;;3.22;2.42;;;;;;;;;;6225686;28;20028;-84
2023/07/21 15:17:01;;;;;;;;;;;;;;;;;;6231951;28;20535;-85
2023/07/21 15:20:11;;;;;;;3.97;2.95;;;;;;;;;;6223068;28;19909;-85
2023/07/21 15:23:11;;;;;;;5.88;2.25;;;;;;;;;;6220058;28;20543;-86
2023/07/21 15:26:14;;;;;;;8.27;3.17;;;;;;;;;;6240194;28;20554;-86
2023/07/21 15:29:14;;;;;;;9.20;2.88;;;;;;;;;;6234263;28;20028;-86
2023/07/21 15:32:14;;;;;;;4.10;2.67;;;;;;;;;;6233062;28;20025;-87
2023/07/21 15:35:15;;;;;;;4.50;2.53;;;;;;;;;;6228208;28;20498;-86
2023/07/21 15:38:16;;;;;;;5.73;2.93;;;;;;;;;;6238437;28;20365;-86
2023/07/21 15:41:16;;;;;;;6.68;2.80;;;;;;;;;;6232603;28;20040;-85
2023/07/21 15:44:17;;;;;;;3.90;2.47;;;;;;;;;;6236628;28;20395;-85
2023/07/21 15:47:17;;;;;;;4.43;2.80;;;;;;;;;;6228899;28;20010;-85
2023/07/21 15:50:17;;;;;;;4.13;2.50;;;;;;;;;;6219377;28;20019;-85
2023/07/21 15:53:18;;;;;;;7.07;3.10;;;;;;;;;;6214050;28;20033;-86
2023/07/21 15:56:18;;;;;;;5.17;2.90;;;;;;;;;;6219682;28;20025;-85
2023/07/21 15:59:18;;;;;;;8.90;3.07;;;;;;;;;;6239232;28;20491;-85
2023/07/21 16:02:18;;;;;;;4.13;2.63;;;;;;;;;;6223231;28;20116;-85
2023/07/21 16:05:19;;;;;;;8.00;2.80;;;;;;;;;;6238144;28;20022;-86
2023/07/21 16:08:21;;;;;;;6.40;2.50;;;;;;;;;;6215580;28;20408;-85
2023/07/21 16:11:22;;;;;;;4.88;3.30;;;;;;;;;;6223592;28;20484;-85
2023/07/21 16:14:23;;;;;;;5.32;3.03;;;;;;;;;;6235861;28;20083;-85
2023/07/21 16:17:23;;;;;;;6.60;2.67;;;;;;;;;;6229783;28;20108;-84
2023/07/21 16:20:23;;;;;;;6.13;2.83;;;;;;;;;;6223518;28;20029;-85
2023/07/21 16:23:26;;;;;;;6.73;3.13;;;;;;;;;;6231886;28;20064;-85
2023/07/21 16:26:26;;;;;;;4.10;2.70;;;;;;;;;;6219830;28;20022;-85
2023/07/21 16:29:27;;;;;;;3.45;3.10;;;;;;;;;;6239283;28;20017;-85
2023/07/21 16:32:27;;;;;;;5.50;3.13;;;;;;;;;;6241183;28;20035;-85
2023/07/21 16:35:27;;;;;;;4.27;3.00;;;;;;;;;;6239920;28;20036;-85
2023/07/21 16:38:28;;;;;;;4.93;3.37;;;;;;;;;;6232259;28;20038;-86
2023/07/21 16:41:28;;;;;;;6.63;3.05;;;;;;;;;;6232470;28;20031;-86
2023/07/21 16:44:32;;;;;;;7.57;3.73;;;;;;;;;;6236718;28;20022;-85
2023/07/21 16:47:33;;;;;;;25.33;14.60;;;;;;;;;;6242696;28;20025;-85
2023/07/21 16:50:33;;;;;;;43.20;26.13;;;;;;;;;;6238194;28;20042;-85
2023/07/21 16:53:33;;;;;;;41.33;26.67;;;;;;;;;;6240759;28;20774;-85
2023/07/21 16:56:34;;;;;;;11.57;7.70;;;;;;;;;;6224888;28;20075;-85
2023/07/21 16:59:34;;;;;;;6.67;2.80;;;;;;;;;;6239966;28;20021;-87
2023/07/21 17:02:35;;;;;;;7.57;3.92;;;;;;;;;;6234127;28;20024;-85
2023/07/21 17:05:35;;;;;;;4.10;2.42;;;;;;;;;;6225984;28;20014;-85
2023/07/21 17:08:36;;;;;;;3.77;2.80;;;;;;;;;;6225631;28;20061;-85
2023/07/21 17:11:36;;;;;;;8.67;2.77;;;;;;;;;;6244235;28;20037;-85
2023/07/21 17:14:36;;;;;;;7.57;2.73;;;;;;;;;;6226056;28;20006;-85
2023/07/21 17:17:37;;;;;;;6.83;2.93;;;;;;;;;;6218495;28;20053;-86
2023/07/21 17:20:37;;;;;;;5.70;3.00;;;;;;;;;;6239536;28;20033;-87
2023/07/21 17:23:38;;;;;;;8.73;3.40;;;;;;;;;;6232440;28;20033;-87
2023/07/21 17:26:38;;;;;;;9.03;3.30;;;;;;;;;;6214258;28;20022;-87
2023/07/21 17:29:40;;;;;;;4.17;2.97;;;;;;;;;;6234843;28;20028;-87
2023/07/21 17:32:40;;;;;;;5.18;2.83;;;;;;;;;;6250713;28;20456;-87
2023/07/21 17:35:42;;;;;;;6.10;3.13;;;;;;;;;;6215219;28;20534;-84
2023/07/21 17:38:42;;;;;;;4.75;3.10;;;;;;;;;;6253564;28;20033;-90
2023/07/21 17:41:42;;;;;;;6.53;3.70;;;;;;;;;;6234750;28;20040;-92
2023/07/21 17:44:42;;;;;;;6.13;3.03;;;;;;;;;;6233144;28;20025;-89
2023/07/21 17:47:43;;;;;;;5.93;3.47;;;;;;;;;;6241178;28;20078;-90
2023/07/21 17:50:43;;;;;;;5.70;3.23;;;;;;;;;;6246560;28;20026;-85
2023/07/21 17:53:44;;;;;;;8.03;3.33;;;;;;;;;;6249228;28;20021;-88
2023/07/21 17:56:44;;;;;;;10.77;4.10;;;;;;;;;;6241485;28;20030;-86
2023/07/21 17:59:44;;;;;;;6.40;3.33;;;;;;;;;;6237543;28;20623;-83
2023/07/21 18:02:44;;;;;;;5.63;3.83;;;;;;;;;;6238994;28;20034;-84
2023/07/21 18:05:46;;;;;;;5.93;3.37;;;;;;;;;;6238714;28;20061;-87
2023/07/21 18:08:52;;;;;;;5.45;3.78;;;;;;;;;;6241134;28;20108;-83
2023/07/21 18:11:53;;;;;;;10.30;4.88;;;;;;;;;;6222719;28;20355;-83
2023/07/21 18:14:53;;;;;;;6.30;3.23;;;;;;;;;;6243718;28;20036;-83
2023/07/21 18:17:53;;;;;;;4.23;3.43;;;;;;;;;;6225298;28;20026;-84
2023/07/21 18:21:04;;;;;;;7.10;3.17;;;;;;;;;;6244393;28;20028;-83
2023/07/21 18:24:04;;;;;;;4.78;3.33;;;;;;;;;;6235585;28;20365;-83
2023/07/21 18:27:04;;;;;;;6.93;4.20;;;;;;;;;;6216308;28;20559;-82
2023/07/21 18:30:06;;;;;;;8.87;4.17;;;;;;;;;;6244742;28;20459;-82
2023/07/21 18:33:06;;;;;;;6.38;4.20;;;;;;;;;;6238827;28;20491;-82
2023/07/21 18:36:25;;;;;;;6.90;3.80;;;;;;;;;;6244780;28;20033;-83
2023/07/21 18:39:25;;;;;;;6.65;4.72;;;;;;;;;;6240892;28;20034;-82
2023/07/21 18:42:25;;;;;;;10.93;4.17;;;;;;;;;;6233799;28;20435;-82
2023/07/21 18:45:25;;;;;;;7.67;3.73;;;;;;;;;;6211717;28;20393;-82